Portada
METAR-TAF:

METAR-TAF

Aeroports :

Cúcuta, Colòmbia

latitud: 07-56N, longitud: 072-31W, altitud: 250 m

Observació

L'informe es va fer fa 54 minuts, a les 17:00 UTC
Vent 6 kt del Nord
Temperatura 33°C
Humitat 49%
Pressió 1013 hPa
Visibilitat 10 km o més
Escasses núvols a una alçada de 2200 ft

METAR: SKCC 191700Z 36006KT 9999 FEW022 33/21 Q1013 RMK A2992

Hora: 12:54 (17:54 UTC)

Pronòstic

L'informe es va fer fa 1 hora i 24 minuts, a les 16:30 UTC
Pronòstic vàlid del 19 a les 18 UTC al 20 a les 18 UTC
Vent 10 kt del Nord-Oest
Visibilitat 10 km o més
Núvols disperses a una alçada de 2300 ft
Evolucionant progressivament
l' 19 a les 22 UTC al 19 a les 24 UTC
Vent 7 kt del Sud
Evolucionant progressivament
l' 20 a les 14 UTC al 20 a les 16 UTC
Vent 12 kt del Nord/Nord-Est

TAF: SKCC 191630Z 1918/2018 32010KT 9999 SCT023 BECMG 1922/1924 18007KT BECMG 2014/2016 02012KT TX34/1918Z TN23/2010Z

Observacions i pronòstics meteorològics de més de 4000 aeroports (METAR i TAF).

Les estacions disponibles són els punts grocs i vermells al mapa.

Posi el ratolí al punt desitjat per veure el nom de l'estació.

Feu clic per veure les observacions i els pronòstics meteorològics.

Per canviar el mapa: feu clic els botons verds amb una creu de color negre per apropar; al botó verd amb un guió per allunyar la imatge; o en les fletxes verdes per a mapes adjacents.


METAR-TAF: